Time;durP1;ratioP1;P1;durP2;ratioP2;P2;SDS_P1;SDS_P2;PMS_P1;PMS_P2;Temp;Humidity;BMP_temperature;BMP_pressure;BME280_temperature;BME280_humidity;BME280_pressure;Samples;Min_cycle;Max_cycle;Signal;HPM_P1;HPM_P2
2023/06/29 00:01:43;;;;;;;7.65;7.05;;;22.80;70.90;;;;;;5024853;28;20055;-76
2023/06/29 00:04:08;;;;;;;7.35;6.85;;;22.70;70.80;;;;;;5032313;28;20076;-76
2023/06/29 00:06:36;;;;;;;7.32;6.63;;;22.80;70.90;;;;;;5023222;28;20507;-76
2023/06/29 00:09:03;;;;;;;7.32;6.82;;;22.80;70.90;;;;;;5028723;28;20049;-77
2023/06/29 00:11:29;;;;;;;7.22;6.63;;;22.70;71.00;;;;;;5030572;28;20044;-76
2023/06/29 00:13:55;;;;;;;7.50;6.80;;;22.70;70.90;;;;;;5028046;28;20153;-76
2023/06/29 00:16:22;;;;;;;6.95;6.45;;;22.80;71.00;;;;;;5028413;28;20162;-76
2023/06/29 00:18:49;;;;;;;7.18;6.68;;;22.70;71.00;;;;;;5023823;28;20116;-77
2023/06/29 00:21:17;;;;;;;6.93;6.38;;;22.70;71.10;;;;;;5046544;28;20123;-76
2023/06/29 00:23:45;;;;;;;6.50;6.03;;;22.80;71.10;;;;;;5030568;28;20046;-76
2023/06/29 00:26:12;;;;;;;6.90;6.40;;;22.70;71.00;;;;;;5027833;28;20834;-76
2023/06/29 00:28:37;;;;;;;6.22;5.72;;;22.70;71.10;;;;;;5025273;28;20034;-76
2023/06/29 00:31:03;;;;;;;7.40;6.78;;;22.70;71.80;;;;;;5046858;28;20053;-76
2023/06/29 00:33:29;;;;;;;6.68;6.25;;;22.70;71.10;;;;;;5033173;28;20053;-76
2023/06/29 00:35:55;;;;;;;6.47;5.97;;;22.70;71.10;;;;;;5027519;28;20064;-76
2023/06/29 00:38:20;;;;;;;7.25;6.65;;;22.70;71.10;;;;;;5030120;28;20575;-76
2023/06/29 00:40:48;;;;;;;6.80;6.30;;;22.70;71.10;;;;;;5035263;28;20453;-76
2023/06/29 00:43:13;;;;;;;7.07;6.57;;;22.70;71.10;;;;;;5034759;28;20079;-76
2023/06/29 00:45:39;;;;;;;6.78;6.30;;;22.70;71.10;;;;;;5049837;28;20171;-76
2023/06/29 00:48:05;;;;;;;6.50;6.00;;;22.70;71.10;;;;;;5015144;28;20526;-76
2023/06/29 00:50:31;;;;;;;7.15;6.65;;;22.70;71.10;;;;;;5010648;28;20041;-76
2023/06/29 00:52:56;;;;;;;6.82;6.38;;;22.70;71.10;;;;;;5023740;28;20049;-76
2023/06/29 00:55:22;;;;;;;7.22;6.72;;;22.70;71.10;;;;;;5028408;28;20056;-76
2023/06/29 00:57:47;;;;;;;7.13;6.57;;;22.70;71.10;;;;;;5035108;28;20473;-76
2023/06/29 01:00:14;;;;;;;6.90;6.40;;;22.70;71.10;;;;;;5034470;28;20045;-76
2023/06/29 01:02:40;;;;;;;7.00;6.50;;;22.70;70.90;;;;;;5029774;28;20048;-76
2023/06/29 01:05:09;;;;;;;7.15;6.55;;;22.70;71.00;;;;;;5030182;28;20069;-76
2023/06/29 01:08:00;;;;;;;6.72;6.30;;;22.70;70.90;;;;;;5028512;28;20056;-76
2023/06/29 01:10:27;;;;;;;7.18;6.53;;;22.70;71.00;;;;;;5012863;28;20080;-76
2023/06/29 01:12:53;;;;;;;6.20;5.80;;;22.70;70.90;;;;;;5012739;28;20045;-76
2023/06/29 01:15:18;;;;;;;7.00;6.50;;;22.70;70.90;;;;;;5016825;28;20049;-76
2023/06/29 01:17:44;;;;;;;6.25;5.85;;;22.70;71.00;;;;;;5025082;28;20053;-76
2023/06/29 01:20:11;;;;;;;6.40;6.00;;;22.70;70.90;;;;;;5021469;28;20096;-76
2023/06/29 01:22:52;;;;;;;7.35;6.35;;;22.70;70.80;;;;;;5029278;28;20065;-76
2023/06/29 01:25:19;;;;;;;6.38;5.88;;;22.70;70.90;;;;;;5027253;28;20050;-76
2023/06/29 01:27:44;;;;;;;5.72;5.43;;;22.70;70.80;;;;;;5030227;28;20138;-76
2023/06/29 01:30:11;;;;;;;6.03;5.63;;;22.70;70.90;;;;;;5031528;28;30451;-76
2023/06/29 01:32:37;;;;;;;5.97;5.57;;;22.70;70.80;;;;;;5027674;28;20036;-76
2023/06/29 01:35:02;;;;;;;6.10;5.70;;;22.70;70.80;;;;;;5044603;28;20106;-76
2023/06/29 01:37:30;;;;;;;6.35;5.95;;;22.70;70.80;;;;;;5043912;28;20046;-75
2023/06/29 01:40:06;;;;;;;7.10;6.60;;;22.70;70.80;;;;;;5049862;28;20497;-76
2023/06/29 01:42:33;;;;;;;6.28;5.88;;;22.70;70.70;;;;;;5055436;28;20041;-76
2023/06/29 01:44:59;;;;;;;6.38;5.97;;;22.80;70.80;;;;;;5048462;28;20045;-76
2023/06/29 01:47:24;;;;;;;6.45;6.03;;;22.70;71.50;;;;;;5049266;28;20045;-76
2023/06/29 01:49:50;;;;;;;7.45;6.85;;;22.70;70.80;;;;;;5067009;28;20095;-76
2023/06/29 01:52:16;;;;;;;6.40;5.90;;;22.70;70.80;;;;;;5048882;28;20049;-76
2023/06/29 01:54:41;;;;;;;6.13;5.63;;;22.70;70.80;;;;;;5053476;28;20049;-76
2023/06/29 01:57:07;;;;;;;7.55;6.95;;;22.70;70.70;;;;;;5064648;28;20045;-76
2023/06/29 01:59:33;;;;;;;6.30;5.90;;;22.70;70.80;;;;;;5062253;28;20166;-76
2023/06/29 02:01:59;;;;;;;6.50;6.10;;;22.70;70.80;;;;;;5047161;28;20072;-76
2023/06/29 02:04:24;;;;;;;5.85;5.45;;;22.70;70.80;;;;;;5060594;28;20392;-76
2023/06/29 02:06:50;;;;;;;6.18;5.78;;;22.70;70.80;;;;;;5043720;28;20049;-76
2023/06/29 02:09:15;;;;;;;6.70;6.20;;;22.70;70.80;;;;;;5047974;28;20045;-76
2023/06/29 02:11:41;;;;;;;6.05;5.65;;;22.70;70.90;;;;;;5044891;28;20081;-75
2023/06/29 02:14:06;;;;;;;5.95;5.55;;;22.70;70.80;;;;;;5014729;28;20046;-75
2023/06/29 02:16:32;;;;;;;6.85;6.45;;;22.70;70.70;;;;;;5002543;28;20529;-76
2023/06/29 02:18:58;;;;;;;5.95;5.57;;;22.70;70.70;;;;;;5050147;28;20056;-76
2023/06/29 02:21:23;;;;;;;6.22;5.78;;;22.70;70.80;;;;;;5047701;28;20457;-75
2023/06/29 02:23:49;;;;;;;5.90;5.50;;;22.70;70.70;;;;;;5017429;28;20037;-76
2023/06/29 02:26:14;;;;;;;6.05;5.63;;;22.70;70.70;;;;;;5028993;28;20064;-76
2023/06/29 02:28:40;;;;;;;6.05;5.70;;;22.70;70.70;;;;;;5033860;28;20029;-76
2023/06/29 02:31:05;;;;;;;7.00;6.55;;;22.70;70.70;;;;;;5032902;28;20105;-76
2023/06/29 02:33:31;;;;;;;6.20;5.85;;;22.70;70.70;;;;;;5034939;28;20040;-76
2023/06/29 02:35:57;;;;;;;5.80;5.43;;;22.70;70.70;;;;;;5030510;28;20148;-76
2023/06/29 02:38:22;;;;;;;6.53;6.10;;;22.70;70.60;;;;;;5024347;28;20771;-76
2023/06/29 02:40:48;;;;;;;6.30;5.90;;;22.70;70.70;;;;;;5038528;28;20025;-76
2023/06/29 02:43:15;;;;;;;5.68;5.35;;;22.70;70.60;;;;;;5054251;28;20506;-76
2023/06/29 02:45:40;;;;;;;5.93;5.53;;;22.70;71.40;;;;;;5049570;28;20481;-76
2023/06/29 02:48:06;;;;;;;6.35;5.85;;;22.70;70.60;;;;;;5032425;28;20033;-76
2023/06/29 02:50:31;;;;;;;6.20;5.78;;;22.70;70.60;;;;;;5033187;28;20046;-76
2023/06/29 02:52:57;;;;;;;5.32;5.03;;;22.70;70.50;;;;;;5030288;28;20039;-76
2023/06/29 02:55:23;;;;;;;5.57;5.28;;;22.70;70.60;;;;;;5012027;28;20384;-76
2023/06/29 02:57:48;;;;;;;5.60;5.20;;;22.70;70.60;;;;;;5031644;28;20038;-75
2023/06/29 03:00:14;;;;;;;5.22;4.90;;;22.70;70.60;;;;;;5032365;28;20048;-75
2023/06/29 03:02:40;;;;;;;5.70;5.30;;;22.70;70.60;;;;;;5031950;28;20041;-76
2023/06/29 03:05:06;;;;;;;5.22;4.93;;;22.70;70.60;;;;;;5039592;28;20501;-76
2023/06/29 03:07:32;;;;;;;5.82;5.35;;;22.70;70.60;;;;;;5016437;28;20042;-76
2023/06/29 03:09:58;;;;;;;6.05;5.55;;;22.70;70.60;;;;;;5035780;28;20038;-76
2023/06/29 03:12:23;;;;;;;5.80;5.40;;;22.70;71.50;;;;;;5033941;28;20502;-76
2023/06/29 03:14:49;;;;;;;6.43;5.93;;;22.70;70.70;;;;;;5029641;28;20045;-76
2023/06/29 03:17:14;;;;;;;6.25;5.65;;;22.70;71.50;;;;;;5029518;28;20171;-76
2023/06/29 03:19:40;;;;;;;6.18;5.68;;;22.70;70.90;;;;;;5041364;28;20037;-76
2023/06/29 03:22:06;;;;;;;5.82;5.32;;;22.70;71.10;;;;;;5065995;28;20041;-76
2023/06/29 03:24:31;;;;;;;5.50;5.10;;;22.70;70.90;;;;;;5070516;28;20051;-75
2023/06/29 03:26:57;;;;;;;5.65;5.25;;;22.70;71.00;;;;;;5042140;28;20156;-76
2023/06/29 03:29:23;;;;;;;5.43;4.93;;;22.70;70.80;;;;;;5048549;28;20398;-75
2023/06/29 03:31:48;;;;;;;5.63;5.22;;;22.70;70.70;;;;;;5030108;28;20041;-76
2023/06/29 03:34:14;;;;;;;6.18;5.78;;;22.70;70.70;;;;;;5027142;28;20048;-75
2023/06/29 03:36:39;;;;;;;6.35;5.93;;;22.70;70.70;;;;;;5033735;28;20064;-75
2023/06/29 03:39:05;;;;;;;5.88;5.38;;;22.70;70.90;;;;;;5033401;28;20120;-76
2023/06/29 03:41:31;;;;;;;5.43;5.10;;;22.70;70.80;;;;;;5033641;28;20045;-76
2023/06/29 03:43:56;;;;;;;5.63;5.28;;;22.70;70.80;;;;;;5027607;28;20469;-76
2023/06/29 03:46:23;;;;;;;5.50;5.20;;;22.70;70.70;;;;;;5040729;28;20048;-75
2023/06/29 03:48:48;;;;;;;6.20;5.80;;;22.70;70.70;;;;;;5032125;28;20572;-75
2023/06/29 03:51:14;;;;;;;5.53;5.13;;;22.70;70.90;;;;;;5043761;28;20047;-75
2023/06/29 03:53:39;;;;;;;6.32;5.82;;;22.70;70.70;;;;;;5048007;28;20410;-76
2023/06/29 03:56:05;;;;;;;5.57;5.18;;;22.70;70.70;;;;;;5049841;28;20086;-76
2023/06/29 03:58:30;;;;;;;6.20;5.80;;;22.70;70.70;;;;;;5032979;28;20033;-76
2023/06/29 04:00:56;;;;;;;5.43;5.05;;;22.70;70.70;;;;;;5033321;28;20498;-75
2023/06/29 04:03:21;;;;;;;5.75;5.35;;;22.70;70.70;;;;;;5057327;28;20179;-76
2023/06/29 04:05:47;;;;;;;6.18;5.78;;;22.70;70.70;;;;;;5038321;28;20033;-76
2023/06/29 04:08:13;;;;;;;5.63;5.25;;;22.70;70.70;;;;;;5030037;28;20034;-76
2023/06/29 04:10:38;;;;;;;6.07;5.68;;;22.70;70.80;;;;;;5053255;28;20097;-75
2023/06/29 04:13:05;;;;;;;6.00;5.60;;;22.70;70.70;;;;;;5049343;28;20045;-76
2023/06/29 04:15:31;;;;;;;6.32;5.82;;;22.70;70.70;;;;;;5053226;28;20060;-76
2023/06/29 04:17:56;;;;;;;5.53;5.13;;;22.70;70.80;;;;;;5050804;28;20036;-75
2023/06/29 04:20:22;;;;;;;5.88;5.47;;;22.70;70.80;;;;;;5050285;28;20193;-75
2023/06/29 04:22:47;;;;;;;6.20;5.65;;;22.70;70.80;;;;;;5049544;28;20038;-76
2023/06/29 04:25:13;;;;;;;5.60;5.20;;;22.70;70.90;;;;;;5032391;28;20045;-76
2023/06/29 04:27:38;;;;;;;5.28;4.90;;;22.70;71.00;;;;;;5035351;28;20059;-76
2023/06/29 04:30:04;;;;;;;5.50;5.03;;;22.70;70.70;;;;;;5055992;28;20540;-76
2023/06/29 04:32:30;;;;;;;5.15;4.85;;;22.70;70.70;;;;;;5043762;28;20107;-76
2023/06/29 04:34:56;;;;;;;5.80;5.40;;;22.70;71.50;;;;;;5020138;28;20042;-76
2023/06/29 04:37:22;;;;;;;5.55;5.15;;;22.70;70.80;;;;;;5032385;28;20060;-76
2023/06/29 04:39:47;;;;;;;7.53;6.90;;;22.70;70.80;;;;;;5057866;28;20042;-75
2023/06/29 04:42:14;;;;;;;8.68;7.88;;;22.50;71.00;;;;;;5042189;28;20189;-76
2023/06/29 04:44:40;;;;;;;8.25;7.50;;;21.90;73.80;;;;;;5046776;28;20071;-76
2023/06/29 04:47:06;;;;;;;8.18;7.47;;;21.70;74.80;;;;;;5042422;28;20041;-75
2023/06/29 04:49:31;;;;;;;8.82;8.13;;;21.50;75.70;;;;;;5047763;28;20534;-76
2023/06/29 04:51:59;;;;;;;8.07;7.13;;;21.30;76.70;;;;;;5048883;28;20948;-76
2023/06/29 04:54:26;;;;;;;7.30;6.70;;;21.30;76.80;;;;;;5039068;28;20391;-76
2023/06/29 04:56:52;;;;;;;8.50;7.70;;;21.20;77.20;;;;;;5032915;28;20049;-76
2023/06/29 04:59:18;;;;;;;8.98;8.23;;;21.20;77.60;;;;;;5036416;28;20505;-76
2023/06/29 05:01:43;;;;;;;9.57;8.75;;;20.80;78.50;;;;;;5052568;28;20044;-76
2023/06/29 05:04:09;;;;;;;8.25;7.55;;;20.80;78.90;;;;;;5032944;28;20151;-76
2023/06/29 05:06:34;;;;;;;8.45;7.70;;;20.80;79.00;;;;;;5051697;28;20670;-76
2023/06/29 05:09:00;;;;;;;7.32;6.72;;;20.80;79.60;;;;;;5046938;28;20107;-76
2023/06/29 05:11:25;;;;;;;8.02;7.32;;;20.80;79.50;;;;;;5048335;28;20047;-75
2023/06/29 05:13:51;;;;;;;7.22;6.63;;;20.70;79.60;;;;;;5052460;28;20061;-75
2023/06/29 05:16:17;;;;;;;7.97;7.28;;;20.80;79.40;;;;;;5054020;28;20040;-76
2023/06/29 05:18:43;;;;;;;8.50;7.68;;;20.70;79.70;;;;;;5042941;28;20060;-76
2023/06/29 05:21:08;;;;;;;8.20;7.45;;;20.90;79.00;;;;;;5051678;28;20138;-76
2023/06/29 05:23:34;;;;;;;8.75;7.00;;;20.70;79.60;;;;;;5047014;28;20049;-76
2023/06/29 05:25:59;;;;;;;8.68;7.75;;;20.70;80.00;;;;;;5041756;28;20128;-75
2023/06/29 05:28:25;;;;;;;8.38;7.53;;;20.70;80.00;;;;;;5050793;28;20071;-75
2023/06/29 05:30:50;;;;;;;7.55;6.95;;;20.60;80.70;;;;;;5056338;28;20049;-75
2023/06/29 05:33:16;;;;;;;7.88;7.28;;;20.70;80.90;;;;;;5026619;28;20502;-75
2023/06/29 05:35:43;;;;;;;9.25;8.35;;;20.70;81.20;;;;;;5045351;28;20331;-76
2023/06/29 05:38:09;;;;;;;9.65;7.80;;;20.70;81.10;;;;;;5045771;28;20043;-76
2023/06/29 05:40:34;;;;;;;8.40;7.60;;;20.70;80.70;;;;;;5052408;28;20048;-76
2023/06/29 05:43:00;;;;;;;7.90;7.10;;;20.70;80.40;;;;;;5052654;28;20069;-76
2023/06/29 05:45:26;;;;;;;8.63;7.78;;;20.80;80.10;;;;;;4703289;28;10001339;-76
2023/06/29 05:47:51;;;;;;;8.20;7.40;;;20.80;80.10;;;;;;5048367;28;20141;-76
2023/06/29 05:50:17;;;;;;;9.13;8.23;;;20.70;80.40;;;;;;5045814;28;20721;-76
2023/06/29 05:52:42;;;;;;;9.38;8.57;;;20.80;80.20;;;;;;5038355;28;20122;-76
2023/06/29 05:55:08;;;;;;;8.75;8.00;;;20.80;79.80;;;;;;5021645;28;20545;-77
2023/06/29 05:57:34;;;;;;;8.88;8.07;;;20.70;79.70;;;;;;5042348;28;20064;-76
2023/06/29 05:59:59;;;;;;;10.00;8.85;;;20.70;79.70;;;;;;5033226;28;20045;-76
2023/06/29 06:02:25;;;;;;;9.38;8.38;;;20.90;79.20;;;;;;5030071;28;20499;-76
2023/06/29 06:04:50;;;;;;;10.07;9.07;;;20.80;79.40;;;;;;5025531;28;20037;-75
2023/06/29 06:07:37;;;;;;;9.30;8.25;;;20.80;79.80;;;;;;5024343;28;20071;-77
2023/06/29 06:10:03;;;;;;;11.27;9.90;;;20.80;79.70;;;;;;5019520;28;20045;-76
2023/06/29 06:12:29;;;;;;;9.75;8.85;;;20.70;79.90;;;;;;5031552;28;20040;-76
2023/06/29 06:14:55;;;;;;;9.82;8.70;;;20.50;80.90;;;;;;5035119;28;20045;-76
2023/06/29 06:17:20;;;;;;;7.75;7.07;;;20.40;81.10;;;;;;5028718;28;20065;-76
2023/06/29 06:19:46;;;;;;;7.82;7.10;;;20.70;79.80;;;;;;5012707;28;20049;-76
2023/06/29 06:22:11;;;;;;;7.88;7.22;;;21.00;79.00;;;;;;5025868;28;20046;-75
2023/06/29 06:24:37;;;;;;;6.93;6.30;;;21.20;78.30;;;;;;5036664;28;20052;-75
2023/06/29 06:27:03;;;;;;;7.47;6.95;;;21.30;77.80;;;;;;5036829;28;20094;-75
2023/06/29 06:29:28;;;;;;;7.70;7.10;;;21.40;77.30;;;;;;5030397;28;20049;-75
2023/06/29 06:31:54;;;;;;;7.70;7.10;;;21.40;77.20;;;;;;5035767;28;20037;-75
2023/06/29 06:34:20;;;;;;;7.45;6.88;;;21.50;77.00;;;;;;5034075;28;20046;-75
2023/06/29 06:36:47;;;;;;;6.97;6.47;;;21.50;76.80;;;;;;5035354;28;20042;-75
2023/06/29 06:39:14;;;;;;;8.45;6.85;;;21.50;76.50;;;;;;5050877;28;20181;-75
2023/06/29 06:41:40;;;;;;;7.05;6.45;;;21.60;76.40;;;;;;5036101;28;20040;-75
2023/06/29 06:44:06;;;;;;;7.28;6.68;;;21.60;77.10;;;;;;5032668;28;20052;-75
2023/06/29 06:46:32;;;;;;;7.03;6.43;;;21.60;76.10;;;;;;5028577;28;20041;-74
2023/06/29 06:48:58;;;;;;;7.03;6.35;;;21.70;75.90;;;;;;5033759;28;20038;-74
2023/06/29 06:51:25;;;;;;;7.15;6.15;;;21.70;75.80;;;;;;5036245;28;20041;-74
2023/06/29 06:53:50;;;;;;;6.45;5.95;;;21.70;75.70;;;;;;5037480;28;20045;-74
2023/06/29 06:56:16;;;;;;;7.18;6.47;;;21.70;75.60;;;;;;5034903;28;20041;-75
2023/06/29 06:58:42;;;;;;;7.05;6.45;;;21.80;75.50;;;;;;5032984;28;20534;-75
2023/06/29 07:01:07;;;;;;;6.82;6.22;;;21.80;75.40;;;;;;5024948;28;20042;-75
2023/06/29 07:03:33;;;;;;;6.45;5.95;;;21.80;75.30;;;;;;5039560;28;20392;-75
2023/06/29 07:05:58;;;;;;;7.50;6.18;;;21.80;75.10;;;;;;5033774;28;20049;-75
2023/06/29 07:08:24;;;;;;;6.30;5.80;;;21.90;75.00;;;;;;5032780;28;20044;-75
2023/06/29 07:10:51;;;;;;;5.97;5.57;;;21.80;74.90;;;;;;5052134;28;20040;-75
2023/06/29 07:13:18;;;;;;;6.43;5.93;;;21.90;75.00;;;;;;5052408;28;20056;-75
2023/06/29 07:15:45;;;;;;;6.68;5.85;;;21.90;74.80;;;;;;5026220;28;20422;-74
2023/06/29 07:18:10;;;;;;;6.80;6.20;;;21.90;74.70;;;;;;5047833;28;20032;-74
2023/06/29 07:20:36;;;;;;;6.18;5.78;;;21.90;75.30;;;;;;5062964;28;20115;-75
2023/06/29 07:23:01;;;;;;;6.70;6.20;;;21.90;74.60;;;;;;5036621;28;20057;-74
2023/06/29 07:25:28;;;;;;;7.03;6.32;;;22.00;74.50;;;;;;5037616;28;20552;-75
2023/06/29 07:27:54;;;;;;;6.03;5.53;;;22.00;74.40;;;;;;5034190;28;20040;-74
2023/06/29 07:30:19;;;;;;;6.80;6.30;;;22.00;74.30;;;;;;5041843;28;20033;-75
2023/06/29 07:32:45;;;;;;;6.45;5.95;;;22.00;74.30;;;;;;5031183;28;20044;-75
2023/06/29 07:35:10;;;;;;;6.07;5.47;;;22.00;74.20;;;;;;5031086;28;20434;-75
2023/06/29 07:37:36;;;;;;;5.95;5.55;;;22.00;74.20;;;;;;5033034;28;20041;-74
2023/06/29 07:40:04;;;;;;;6.25;5.85;;;22.00;74.20;;;;;;5034934;28;20056;-74
2023/06/29 07:42:30;;;;;;;5.70;5.30;;;22.00;74.10;;;;;;4693525;28;10000143;-74
2023/06/29 07:44:55;;;;;;;5.63;5.13;;;22.10;73.90;;;;;;5023860;28;20521;-73
2023/06/29 07:47:21;;;;;;;5.90;5.40;;;22.10;73.90;;;;;;5030831;28;20037;-74
2023/06/29 07:49:46;;;;;;;5.40;5.03;;;22.10;73.90;;;;;;5044451;28;20043;-73
2023/06/29 07:52:12;;;;;;;5.90;5.50;;;22.10;73.90;;;;;;5040974;28;20878;-74
2023/06/29 07:54:37;;;;;;;5.15;4.85;;;22.10;73.90;;;;;;5049416;28;20047;-73
2023/06/29 07:57:03;;;;;;;4.88;4.53;;;22.10;74.00;;;;;;5023174;28;20565;-74
2023/06/29 07:59:29;;;;;;;4.93;4.43;;;22.10;73.90;;;;;;5026495;28;20051;-73
2023/06/29 08:01:55;;;;;;;5.63;5.13;;;22.10;74.80;;;;;;5030705;28;20052;-73
2023/06/29 08:04:20;;;;;;;5.80;5.20;;;22.10;73.90;;;;;;5035320;28;20613;-74
2023/06/29 08:06:46;;;;;;;9.98;6.57;;;22.20;74.30;;;;;;5025597;28;20751;-73
2023/06/29 08:09:11;;;;;;;12.38;6.53;;;22.20;75.10;;;;;;5033271;28;20043;-74
2023/06/29 08:11:38;;;;;;;10.52;6.30;;;22.20;75.80;;;;;;5042592;28;22027;-74
2023/06/29 08:14:04;;;;;;;11.57;7.30;;;22.20;75.40;;;;;;5026263;28;20067;-74
2023/06/29 08:16:29;;;;;;;19.17;10.13;;;22.30;76.70;;;;;;5022298;28;20427;-75
2023/06/29 08:18:55;;;;;;;13.85;8.63;;;22.20;77.40;;;;;;5031409;28;20487;-74
2023/06/29 08:21:21;;;;;;;13.23;8.20;;;22.20;76.60;;;;;;5032239;28;20037;-74
2023/06/29 08:23:48;;;;;;;10.80;7.07;;;22.20;77.10;;;;;;5021762;28;20042;-74
2023/06/29 08:26:14;;;;;;;9.38;6.30;;;22.30;77.10;;;;;;5044136;28;20095;-76
2023/06/29 08:28:40;;;;;;;8.95;7.18;;;22.30;76.50;;;;;;5031313;28;20040;-74
2023/06/29 08:31:05;;;;;;;7.85;5.32;;;22.30;76.10;;;;;;5031338;28;20049;-74
2023/06/29 08:33:31;;;;;;;8.05;5.80;;;22.30;76.40;;;;;;5036475;28;20049;-74
2023/06/29 08:35:56;;;;;;;6.85;5.80;;;22.30;76.30;;;;;;5009139;28;20042;-74
2023/06/29 08:38:22;;;;;;;9.50;4.93;;;22.30;76.00;;;;;;5030373;28;20049;-74
2023/06/29 08:40:48;;;;;;;5.82;5.13;;;22.30;76.10;;;;;;5032832;28;20453;-74
2023/06/29 08:43:15;;;;;;;6.68;5.43;;;22.30;75.90;;;;;;4689484;28;10000421;-74
2023/06/29 08:45:42;;;;;;;5.13;4.63;;;22.30;76.20;;;;;;5030279;28;20049;-74
2023/06/29 08:48:07;;;;;;;5.10;4.57;;;22.30;75.20;;;;;;5063251;28;20030;-74
2023/06/29 08:50:33;;;;;;;4.65;4.25;;;22.30;75.00;;;;;;5030176;28;20041;-74
2023/06/29 08:52:58;;;;;;;4.55;4.15;;;22.40;74.90;;;;;;5032417;28;20033;-74
2023/06/29 08:55:24;;;;;;;6.88;3.78;;;22.40;75.00;;;;;;5045162;28;20060;-74
2023/06/29 08:57:50;;;;;;;4.85;4.32;;;22.40;75.00;;;;;;5031083;28;20525;-74
2023/06/29 09:00:16;;;;;;;3.45;3.22;;;22.40;75.00;;;;;;5018294;28;20452;-74
2023/06/29 09:02:42;;;;;;;4.13;3.55;;;22.40;74.90;;;;;;5015223;28;20053;-74
2023/06/29 09:05:08;;;;;;;4.30;3.90;;;22.40;74.90;;;;;;5047701;28;20041;-74
2023/06/29 09:07:34;;;;;;;4.22;3.90;;;22.40;74.80;;;;;;5061383;28;20041;-75
2023/06/29 09:09:59;;;;;;;3.85;3.55;;;22.50;74.80;;;;;;5063576;28;20057;-74
2023/06/29 09:12:27;;;;;;;4.05;3.78;;;22.50;74.80;;;;;;5061521;28;20144;-75
2023/06/29 09:14:53;;;;;;;6.15;3.85;;;22.50;74.80;;;;;;5064420;28;20132;-74
2023/06/29 09:17:18;;;;;;;4.00;3.67;;;22.50;74.70;;;;;;5031856;28;20589;-74
2023/06/29 09:19:53;;;;;;;4.72;3.92;;;22.50;74.70;;;;;;5045564;28;20521;-74
2023/06/29 09:22:21;;;;;;;4.63;4.22;;;22.50;74.80;;;;;;5021255;28;20049;-74
2023/06/29 09:24:47;;;;;;;4.00;3.72;;;22.50;74.70;;;;;;5052066;28;20037;-74
2023/06/29 09:27:12;;;;;;;4.43;4.05;;;22.50;74.70;;;;;;5045262;28;20048;-74
2023/06/29 09:29:38;;;;;;;3.10;2.90;;;22.50;74.60;;;;;;5040864;28;20030;-74
2023/06/29 09:32:04;;;;;;;3.58;3.28;;;22.50;74.50;;;;;;5033446;28;20045;-74
2023/06/29 09:34:30;;;;;;;3.78;3.47;;;22.50;74.40;;;;;;5042098;28;20053;-73
2023/06/29 09:36:56;;;;;;;3.50;3.28;;;22.50;74.40;;;;;;5031788;28;20048;-74
2023/06/29 09:39:21;;;;;;;4.13;3.80;;;22.50;74.00;;;;;;5013175;28;20064;-75
2023/06/29 09:41:56;;;;;;;2.78;2.67;;;22.50;73.80;;;;;;5041262;28;20041;-75
2023/06/29 09:44:25;;;;;;;2.60;2.50;;;22.50;73.80;;;;;;5017287;28;20099;-75
2023/06/29 09:47:04;;;;;;;2.90;2.70;;;22.50;73.80;;;;;;5043725;28;20123;-74
2023/06/29 09:49:30;;;;;;;2.83;2.40;;;22.50;73.70;;;;;;5030365;28;20068;-74
2023/06/29 09:52:05;;;;;;;2.42;2.30;;;22.50;73.80;;;;;;5064727;28;20098;-74
2023/06/29 09:54:34;;;;;;;2.85;2.60;;;22.50;73.60;;;;;;5065493;28;20051;-75
2023/06/29 09:57:01;;;;;;;3.10;2.90;;;22.50;73.50;;;;;;5046737;28;20044;-74
2023/06/29 09:59:26;;;;;;;2.90;2.63;;;22.60;73.60;;;;;;5048203;28;20043;-75
2023/06/29 10:01:52;;;;;;;2.90;2.70;;;22.60;73.40;;;;;;5045822;28;20064;-74
2023/06/29 10:04:18;;;;;;;2.65;2.45;;;22.60;73.10;;;;;;5032298;28;20052;-74
2023/06/29 10:06:46;;;;;;;2.67;2.58;;;22.60;73.20;;;;;;5051313;28;20045;-75
2023/06/29 10:09:16;;;;;;;2.53;2.33;;;22.60;73.10;;;;;;5021764;28;20056;-74
2023/06/29 10:11:41;;;;;;;2.53;2.33;;;22.60;73.10;;;;;;5035342;28;20131;-75
2023/06/29 10:14:07;;;;;;;2.70;2.50;;;22.60;73.10;;;;;;5043066;28;20483;-75
2023/06/29 10:16:34;;;;;;;3.00;2.80;;;22.60;72.90;;;;;;5032664;28;20115;-75
2023/06/29 10:19:21;;;;;;;2.40;2.20;;;22.60;72.90;;;;;;5032673;28;20416;-75
2023/06/29 10:21:53;;;;;;;3.75;2.10;;;22.60;72.60;;;;;;5026691;28;20465;-74
2023/06/29 10:24:21;;;;;;;2.22;2.03;;;22.60;72.70;;;;;;5028654;28;20053;-73
2023/06/29 10:26:47;;;;;;;2.38;2.28;;;22.60;72.50;;;;;;5049469;28;20535;-74
2023/06/29 10:29:13;;;;;;;5.57;2.08;;;22.60;72.70;;;;;;5038997;28;20056;-74
2023/06/29 10:31:45;;;;;;;3.42;3.13;;;22.70;73.60;;;;;;5037289;28;20558;-73
2023/06/29 10:34:11;;;;;;;5.95;3.45;;;22.70;76.40;;;;;;5039679;28;20049;-73
2023/06/29 10:36:49;;;;;;;3.10;2.80;;;22.80;76.60;;;;;;5049073;28;20051;-74
2023/06/29 10:39:40;;;;;;;2.60;2.45;;;22.80;76.50;;;;;;5027366;28;20068;-73
2023/06/29 10:42:37;;;;;;;2.60;2.40;;;22.80;75.80;;;;;;5024910;28;20036;-74
2023/06/29 10:45:23;;;;;;;1.80;1.70;;;22.80;74.30;;;;;;5025460;28;20045;-74
2023/06/29 10:47:58;;;;;;;2.85;1.70;;;22.90;74.10;;;;;;5051574;28;20578;-75
2023/06/29 10:50:25;;;;;;;3.15;2.20;;;22.80;73.80;;;;;;5042148;28;20063;-74
2023/06/29 10:52:50;;;;;;;2.17;1.95;;;22.80;73.40;;;;;;5033846;28;20033;-74
2023/06/29 10:55:18;;;;;;;2.30;2.10;;;22.80;73.50;;;;;;5024763;28;20049;-74
2023/06/29 10:57:48;;;;;;;1.85;1.75;;;22.80;73.60;;;;;;5029970;28;20040;-74
2023/06/29 11:00:14;;;;;;;3.35;1.95;;;22.80;73.50;;;;;;5033787;28;20051;-74
2023/06/29 11:02:43;;;;;;;3.45;2.17;;;22.80;73.40;;;;;;5041488;28;20047;-74
2023/06/29 11:05:14;;;;;;;1.98;1.88;;;22.90;73.30;;;;;;5027294;28;20041;-76
2023/06/29 11:07:42;;;;;;;1.90;1.70;;;22.90;73.60;;;;;;4995101;28;20432;-75
2023/06/29 11:10:09;;;;;;;2.58;2.08;;;22.90;73.40;;;;;;5046697;28;20038;-74
2023/06/29 11:12:38;;;;;;;1.98;1.77;;;22.90;73.50;;;;;;5033891;28;20044;-74
2023/06/29 11:15:13;;;;;;;3.60;2.10;;;22.90;73.30;;;;;;5011027;28;20041;-74
2023/06/29 11:17:42;;;;;;;2.63;2.05;;;22.90;72.90;;;;;;5011628;28;20060;-74
2023/06/29 11:20:12;;;;;;;1.35;1.27;;;22.90;72.80;;;;;;5029670;28;20466;-74
2023/06/29 11:22:37;;;;;;;1.70;1.60;;;22.80;69.10;;;;;;5014413;28;20099;-75
2023/06/29 11:25:03;;;;;;;4.07;1.60;;;22.70;71.20;;;;;;5030371;28;20042;-74
2023/06/29 11:27:28;;;;;;;1.75;1.63;;;22.80;71.60;;;;;;5028584;28;20060;-74
2023/06/29 11:29:56;;;;;;;4.25;1.40;;;22.80;71.30;;;;;;5039431;28;20580;-74
2023/06/29 11:32:22;;;;;;;1.90;1.50;;;22.80;70.90;;;;;;5050098;28;20044;-74
2023/06/29 11:34:59;;;;;;;1.48;1.30;;;22.80;71.10;;;;;;5049808;28;20045;-74
2023/06/29 11:37:25;;;;;;;1.50;1.40;;;22.80;71.00;;;;;;5050118;28;20045;-74
2023/06/29 11:39:51;;;;;;;2.47;1.52;;;22.80;70.90;;;;;;5052002;28;20053;-74
2023/06/29 11:42:18;;;;;;;4.13;1.40;;;22.80;70.80;;;;;;5015961;28;20032;-74
2023/06/29 11:44:43;;;;;;;1.50;1.40;;;22.80;70.70;;;;;;5050377;28;20053;-74
2023/06/29 11:47:09;;;;;;;1.67;1.58;;;22.80;70.60;;;;;;5071761;28;20064;-74
2023/06/29 11:49:34;;;;;;;2.03;1.30;;;22.90;71.40;;;;;;5051581;28;20405;-74
2023/06/29 11:52:02;;;;;;;3.30;1.33;;;22.90;70.50;;;;;;5069737;28;20037;-74
2023/06/29 11:54:30;;;;;;;1.77;1.17;;;22.90;70.60;;;;;;4700390;28;9999978;-75
2023/06/29 11:56:56;;;;;;;2.10;1.40;;;22.90;70.20;;;;;;5038018;28;20028;-73
2023/06/29 11:59:22;;;;;;;2.85;1.40;;;22.90;70.30;;;;;;5032947;28;20087;-74
2023/06/29 12:01:47;;;;;;;3.63;1.52;;;22.90;70.20;;;;;;5022534;28;20136;-74
2023/06/29 12:04:13;;;;;;;1.58;1.48;;;22.90;70.30;;;;;;5054454;28;20085;-74
2023/06/29 12:06:51;;;;;;;1.55;1.30;;;22.90;70.50;;;;;;5059464;28;20044;-74
2023/06/29 12:09:17;;;;;;;1.40;1.30;;;22.90;70.40;;;;;;5047574;28;20090;-73
2023/06/29 12:11:43;;;;;;;1.65;1.55;;;22.90;70.50;;;;;;5028127;28;20044;-74
2023/06/29 12:14:11;;;;;;;2.50;1.40;;;22.90;70.40;;;;;;5027334;28;20050;-74
2023/06/29 12:16:41;;;;;;;1.77;1.25;;;22.90;71.10;;;;;;5016233;28;20045;-74
2023/06/29 12:19:13;;;;;;;2.72;1.65;;;22.90;70.30;;;;;;5005247;28;20043;-74
2023/06/29 12:21:38;;;;;;;1.52;1.42;;;22.90;70.30;;;;;;5025456;28;20450;-74
2023/06/29 12:24:04;;;;;;;1.90;1.42;;;22.90;70.20;;;;;;5029744;28;20039;-74
2023/06/29 12:26:31;;;;;;;1.50;1.40;;;23.00;70.10;;;;;;5022068;28;20053;-74
2023/06/29 12:28:56;;;;;;;2.97;1.63;;;23.00;70.30;;;;;;5010629;28;20625;-76
2023/06/29 12:31:26;;;;;;;1.10;1.05;;;23.00;70.20;;;;;;5022824;28;20046;-75
2023/06/29 12:33:53;;;;;;;1.13;1.10;;;23.00;70.20;;;;;;5050242;28;20077;-74
2023/06/29 12:36:19;;;;;;;1.67;1.58;;;23.00;70.20;;;;;;5050374;28;20102;-74
2023/06/29 12:38:45;;;;;;;2.45;1.20;;;23.00;70.10;;;;;;5034608;28;20040;-74
2023/06/29 12:41:11;;;;;;;1.45;1.33;;;23.00;70.00;;;;;;5023430;28;20066;-74
2023/06/29 12:43:36;;;;;;;3.08;1.38;;;23.00;70.00;;;;;;5042758;28;20045;-75